sensor_id;sensor_type;location;lat;lon;timestamp;pressure;altitude;pressure_sealevel;temperature;humidity
53647;BME280;39550;52.230;5.194;2023-01-04T00:00:07;101623.06;;;6.14;91.13
53647;BME280;39550;52.230;5.194;2023-01-04T00:02:32;101612.88;;;6.16;90.53
53647;BME280;39550;52.230;5.194;2023-01-04T00:04:57;101605.16;;;6.14;90.86
53647;BME280;39550;52.230;5.194;2023-01-04T00:07:23;101596.69;;;6.16;91.68
53647;BME280;39550;52.230;5.194;2023-01-04T00:09:48;101591.56;;;6.16;90.71
53647;BME280;39550;52.230;5.194;2023-01-04T00:12:13;101581.31;;;6.16;91.16
53647;BME280;39550;52.230;5.194;2023-01-04T00:14:39;101580.50;;;6.17;90.80
53647;BME280;39550;52.230;5.194;2023-01-04T00:17:04;101573.63;;;6.16;91.38
53647;BME280;39550;52.230;5.194;2023-01-04T00:19:29;101560.91;;;6.17;90.81
53647;BME280;39550;52.230;5.194;2023-01-04T00:21:55;101545.50;;;6.16;91.33
53647;BME280;39550;52.230;5.194;2023-01-04T00:24:20;101555.72;;;6.16;90.92
53647;BME280;39550;52.230;5.194;2023-01-04T00:26:45;101545.50;;;6.16;91.80
53647;BME280;39550;52.230;5.194;2023-01-04T00:29:12;101550.66;;;6.17;90.87
53647;BME280;39550;52.230;5.194;2023-01-04T00:31:37;101536.91;;;6.13;91.19
53647;BME280;39550;52.230;5.194;2023-01-04T00:34:04;101537.13;;;6.20;90.93
53647;BME280;39550;52.230;5.194;2023-01-04T00:36:31;101545.59;;;6.19;91.30
53647;BME280;39550;52.230;5.194;2023-01-04T00:38:58;101531.88;;;6.17;91.68
53647;BME280;39550;52.230;5.194;2023-01-04T00:41:40;101525.13;;;6.19;91.88
53647;BME280;39550;52.230;5.194;2023-01-04T00:44:07;101508.91;;;6.18;91.94
53647;BME280;39550;52.230;5.194;2023-01-04T00:46:33;101508.91;;;6.18;91.41
53647;BME280;39550;52.230;5.194;2023-01-04T00:48:59;101496.06;;;6.17;92.02
53647;BME280;39550;52.230;5.194;2023-01-04T00:51:27;101493.50;;;6.17;92.07
53647;BME280;39550;52.230;5.194;2023-01-04T00:53:54;101472.09;;;6.14;91.53
53647;BME280;39550;52.230;5.194;2023-01-04T00:56:21;101493.56;;;6.18;91.20
53647;BME280;39550;52.230;5.194;2023-01-04T00:58:46;101472.28;;;6.19;92.32
53647;BME280;39550;52.230;5.194;2023-01-04T01:01:11;101476.56;;;6.20;91.42
53647;BME280;39550;52.230;5.194;2023-01-04T01:03:38;101452.66;;;6.20;91.40
53647;BME280;39550;52.230;5.194;2023-01-04T01:06:05;101453.47;;;6.19;92.02
53647;BME280;39550;52.230;5.194;2023-01-04T01:08:32;101461.19;;;6.20;91.90
53647;BME280;39550;52.230;5.194;2023-01-04T01:11:04;101453.59;;;6.22;91.84
53647;BME280;39550;52.230;5.194;2023-01-04T01:13:29;101442.47;;;6.21;92.00
53647;BME280;39550;52.230;5.194;2023-01-04T01:15:54;101436.50;;;6.21;91.97
53647;BME280;39550;52.230;5.194;2023-01-04T01:18:20;101435.59;;;6.20;91.93
53647;BME280;39550;52.230;5.194;2023-01-04T01:20:47;101424.59;;;6.23;92.02
53647;BME280;39550;52.230;5.194;2023-01-04T01:23:13;101429.72;;;6.23;91.98
53647;BME280;39550;52.230;5.194;2023-01-04T01:25:40;101428.00;;;6.22;91.49
53647;BME280;39550;52.230;5.194;2023-01-04T01:28:05;101428.06;;;6.23;91.81
53647;BME280;39550;52.230;5.194;2023-01-04T01:30:33;101439.97;;;6.23;92.29
53647;BME280;39550;52.230;5.194;2023-01-04T01:35:47;101408.53;;;6.01;92.47
53647;BME280;39550;52.230;5.194;2023-01-04T01:38:13;101400.34;;;6.11;92.35
53647;BME280;39550;52.230;5.194;2023-01-04T01:40:42;101396.81;;;6.08;91.99
53647;BME280;39550;52.230;5.194;2023-01-04T01:43:47;101357.00;;;5.92;91.83
53647;BME280;39550;52.230;5.194;2023-01-04T01:46:15;101416.22;;;6.27;91.71
53647;BME280;39550;52.230;5.194;2023-01-04T01:48:43;101359.06;;;6.02;92.52
53647;BME280;39550;52.230;5.194;2023-01-04T01:51:10;101339.03;;;5.90;93.53
53647;BME280;39550;52.230;5.194;2023-01-04T01:53:37;101380.84;;;6.15;93.11
53647;BME280;39550;52.230;5.194;2023-01-04T01:56:05;101399.06;;;6.24;92.99
53647;BME280;39550;52.230;5.194;2023-01-04T01:58:43;101384.97;;;6.11;92.93
53647;BME280;39550;52.230;5.194;2023-01-04T02:01:10;101384.31;;;6.17;93.09
53647;BME280;39550;52.230;5.194;2023-01-04T02:03:39;101399.00;;;6.23;93.06
53647;BME280;39550;52.230;5.194;2023-01-04T02:06:08;101419.81;;;6.32;94.00
53647;BME280;39550;52.230;5.194;2023-01-04T02:08:36;101338.09;;;5.88;93.68
53647;BME280;39550;52.230;5.194;2023-01-04T02:11:02;101318.28;;;5.83;93.51
53647;BME280;39550;52.230;5.194;2023-01-04T02:13:29;101382.75;;;6.21;93.12
53647;BME280;39550;52.230;5.194;2023-01-04T02:16:25;101411.34;;;6.33;93.86
53647;BME280;39550;52.230;5.194;2023-01-04T02:19:04;101386.78;;;6.14;93.38
53647;BME280;39550;52.230;5.194;2023-01-04T02:24:17;101391.75;;;6.35;93.85
53647;BME280;39550;52.230;5.194;2023-01-04T02:29:39;101399.44;;;6.35;93.45
53647;BME280;39550;52.230;5.194;2023-01-04T02:35:34;101402.94;;;6.37;94.11
53647;BME280;39550;52.230;5.194;2023-01-04T02:38:21;101398.69;;;6.38;93.21
53647;BME280;39550;52.230;5.194;2023-01-04T02:41:04;101399.44;;;6.35;94.81
53647;BME280;39550;52.230;5.194;2023-01-04T02:43:40;101378.88;;;6.32;94.64
53647;BME280;39550;52.230;5.194;2023-01-04T02:46:50;101379.06;;;6.38;93.41
53647;BME280;39550;52.230;5.194;2023-01-04T02:49:17;101321.94;;;6.13;94.15
53647;BME280;39550;52.230;5.194;2023-01-04T02:52:22;101370.56;;;6.39;94.34
53647;BME280;39550;52.230;5.194;2023-01-04T02:54:49;101361.13;;;6.38;93.68
53647;BME280;39550;52.230;5.194;2023-01-04T03:06:01;101370.66;;;6.42;94.87
53647;BME280;39550;52.230;5.194;2023-01-04T03:11:14;101309.88;;;6.09;95.08
53647;BME280;39550;52.230;5.194;2023-01-04T03:14:03;101271.75;;;5.93;94.72
53647;BME280;39550;52.230;5.194;2023-01-04T03:16:33;101343.22;;;6.38;95.12
53647;BME280;39550;52.230;5.194;2023-01-04T03:19:02;101332.06;;;6.36;95.24
53647;BME280;39550;52.230;5.194;2023-01-04T03:21:34;101347.69;;;6.44;95.51
53647;BME280;39550;52.230;5.194;2023-01-04T03:24:02;101326.06;;;6.34;95.38
53647;BME280;39550;52.230;5.194;2023-01-04T03:26:50;101334.09;;;6.46;95.48
53647;BME280;39550;52.230;5.194;2023-01-04T03:29:38;101309.81;;;6.34;94.97
53647;BME280;39550;52.230;5.194;2023-01-04T03:32:39;101321.97;;;6.41;95.41
53647;BME280;39550;52.230;5.194;2023-01-04T03:38:10;101324.59;;;6.42;95.56
53647;BME280;39550;52.230;5.194;2023-01-04T03:41:25;101329.69;;;6.42;96.00
53647;BME280;39550;52.230;5.194;2023-01-04T03:47:03;101323.16;;;6.51;95.81
53647;BME280;39550;52.230;5.194;2023-01-04T03:49:54;101311.19;;;6.50;95.18
53647;BME280;39550;52.230;5.194;2023-01-04T03:52:23;101305.75;;;6.40;95.19
53647;BME280;39550;52.230;5.194;2023-01-04T03:54:51;101250.41;;;6.17;95.69
53647;BME280;39550;52.230;5.194;2023-01-04T03:57:17;101243.34;;;6.09;95.87
53647;BME280;39550;52.230;5.194;2023-01-04T03:59:49;101297.66;;;6.54;95.77
53647;BME280;39550;52.230;5.194;2023-01-04T04:02:21;101308.00;;;6.57;95.71
53647;BME280;39550;52.230;5.194;2023-01-04T04:04:47;101280.94;;;6.38;96.28
53647;BME280;39550;52.230;5.194;2023-01-04T04:07:31;101285.47;;;6.46;95.52
53647;BME280;39550;52.230;5.194;2023-01-04T04:10:16;101282.09;;;6.47;96.07
53647;BME280;39550;52.230;5.194;2023-01-04T04:12:41;101210.69;;;6.02;95.67
53647;BME280;39550;52.230;5.194;2023-01-04T04:15:07;101290.06;;;6.57;96.31
53647;BME280;39550;52.230;5.194;2023-01-04T04:17:32;101272.78;;;6.50;96.17
53647;BME280;39550;52.230;5.194;2023-01-04T04:19:57;101286.44;;;6.50;96.14
53647;BME280;39550;52.230;5.194;2023-01-04T04:22:23;101287.59;;;6.60;95.97
53647;BME280;39550;52.230;5.194;2023-01-04T04:24:48;101294.47;;;6.61;96.67
53647;BME280;39550;52.230;5.194;2023-01-04T04:27:13;101283.25;;;6.57;95.91
53647;BME280;39550;52.230;5.194;2023-01-04T04:29:38;101261.59;;;6.47;95.85
53647;BME280;39550;52.230;5.194;2023-01-04T04:32:04;101274.06;;;6.64;96.10
53647;BME280;39550;52.230;5.194;2023-01-04T04:34:29;101242.88;;;6.48;95.86
53647;BME280;39550;52.230;5.194;2023-01-04T04:36:55;101252.44;;;6.54;96.33
53647;BME280;39550;52.230;5.194;2023-01-04T04:39:20;101247.41;;;6.57;96.29
53647;BME280;39550;52.230;5.194;2023-01-04T04:41:45;101213.31;;;6.31;95.99
53647;BME280;39550;52.230;5.194;2023-01-04T04:44:14;101256.09;;;6.62;96.99
53647;BME280;39550;52.230;5.194;2023-01-04T04:46:40;101254.56;;;6.68;96.41
53647;BME280;39550;52.230;5.194;2023-01-04T04:49:09;101249.47;;;6.69;96.49
53647;BME280;39550;52.230;5.194;2023-01-04T04:51:36;101236.59;;;6.66;97.00
53647;BME280;39550;52.230;5.194;2023-01-04T04:54:02;101247.72;;;6.68;96.93
53647;BME280;39550;52.230;5.194;2023-01-04T04:56:27;101186.00;;;6.30;96.77
53647;BME280;39550;52.230;5.194;2023-01-04T04:58:53;101218.84;;;6.45;96.38
53647;BME280;39550;52.230;5.194;2023-01-04T05:01:19;101247.78;;;6.70;97.02
53647;BME280;39550;52.230;5.194;2023-01-04T05:03:44;101193.72;;;6.32;96.86
53647;BME280;39550;52.230;5.194;2023-01-04T05:06:10;101241.72;;;6.66;96.50
53647;BME280;39550;52.230;5.194;2023-01-04T05:08:35;101230.50;;;6.62;96.29
53647;BME280;39550;52.230;5.194;2023-01-04T05:11:09;101250.38;;;6.71;95.96
53647;BME280;39550;52.230;5.194;2023-01-04T05:13:34;101261.56;;;6.73;96.98
53647;BME280;39550;52.230;5.194;2023-01-04T05:16:01;101174.03;;;6.29;96.53
53647;BME280;39550;52.230;5.194;2023-01-04T05:18:27;101212.31;;;6.55;96.35
53647;BME280;39550;52.230;5.194;2023-01-04T05:20:52;101211.50;;;6.56;96.93
53647;BME280;39550;52.230;5.194;2023-01-04T05:23:19;101078.94;;;5.89;96.43
53647;BME280;39550;52.230;5.194;2023-01-04T05:25:45;101228.25;;;6.73;96.89
53647;BME280;39550;52.230;5.194;2023-01-04T05:28:11;101217.13;;;6.73;96.82
53647;BME280;39550;52.230;5.194;2023-01-04T05:30:36;101204.19;;;6.68;97.19
53647;BME280;39550;52.230;5.194;2023-01-04T05:33:19;101124.56;;;6.30;97.35
53647;BME280;39550;52.230;5.194;2023-01-04T05:35:45;101172.25;;;6.55;96.80
53647;BME280;39550;52.230;5.194;2023-01-04T05:38:10;101197.53;;;6.73;96.95
53647;BME280;39550;52.230;5.194;2023-01-04T05:40:36;101162.94;;;6.59;97.12
53647;BME280;39550;52.230;5.194;2023-01-04T05:43:01;101151.94;;;6.61;97.23
53647;BME280;39550;52.230;5.194;2023-01-04T05:45:26;101101.63;;;6.33;97.78
53647;BME280;39550;52.230;5.194;2023-01-04T05:47:52;101166.63;;;6.69;96.87
53647;BME280;39550;52.230;5.194;2023-01-04T05:50:19;101181.25;;;6.73;97.13
53647;BME280;39550;52.230;5.194;2023-01-04T05:52:45;101163.28;;;6.71;97.33
53647;BME280;39550;52.230;5.194;2023-01-04T05:55:11;101118.31;;;6.51;96.86
53647;BME280;39550;52.230;5.194;2023-01-04T05:57:36;101108.78;;;6.45;97.39
53647;BME280;39550;52.230;5.194;2023-01-04T06:00:02;101168.66;;;6.79;97.22
53647;BME280;39550;52.230;5.194;2023-01-04T06:02:29;101120.06;;;6.52;97.35
53647;BME280;39550;52.230;5.194;2023-01-04T06:04:55;101173.91;;;6.84;97.45
53647;BME280;39550;52.230;5.194;2023-01-04T06:07:21;101111.38;;;6.46;97.48
53647;BME280;39550;52.230;5.194;2023-01-04T06:09:46;101140.44;;;6.77;97.50
53647;BME280;39550;52.230;5.194;2023-01-04T06:12:12;101179.03;;;6.84;96.74
53647;BME280;39550;52.230;5.194;2023-01-04T06:14:37;101199.44;;;6.80;97.59
53647;BME280;39550;52.230;5.194;2023-01-04T06:17:04;101216.63;;;6.85;97.14
53647;BME280;39550;52.230;5.194;2023-01-04T06:19:29;101189.81;;;6.72;97.68
53647;BME280;39550;52.230;5.194;2023-01-04T06:21:55;101138.63;;;6.44;96.92
53647;BME280;39550;52.230;5.194;2023-01-04T06:24:21;101118.16;;;6.44;97.40
53647;BME280;39550;52.230;5.194;2023-01-04T06:26:46;101191.97;;;6.88;97.51
53647;BME280;39550;52.230;5.194;2023-01-04T06:29:11;101185.84;;;6.83;97.30
53647;BME280;39550;52.230;5.194;2023-01-04T06:31:37;101191.97;;;6.88;97.29
53647;BME280;39550;52.230;5.194;2023-01-04T06:34:02;101209.97;;;6.90;98.22
53647;BME280;39550;52.230;5.194;2023-01-04T06:36:28;101196.22;;;6.88;98.03
53647;BME280;39550;52.230;5.194;2023-01-04T06:38:56;101186.94;;;6.91;97.70
53647;BME280;39550;52.230;5.194;2023-01-04T06:41:21;101187.75;;;6.90;97.17
53647;BME280;39550;52.230;5.194;2023-01-04T06:43:47;101187.78;;;6.92;97.84
53647;BME280;39550;52.230;5.194;2023-01-04T06:46:13;101175.81;;;6.91;98.31
53647;BME280;39550;52.230;5.194;2023-01-04T06:48:38;101180.16;;;6.93;97.88
53647;BME280;39550;52.230;5.194;2023-01-04T06:51:04;101178.38;;;6.91;97.45
53647;BME280;39550;52.230;5.194;2023-01-04T06:53:30;101174.16;;;6.93;97.06
53647;BME280;39550;52.230;5.194;2023-01-04T06:55:55;101165.66;;;6.94;97.86
53647;BME280;39550;52.230;5.194;2023-01-04T06:58:20;101166.53;;;6.94;97.97
53647;BME280;39550;52.230;5.194;2023-01-04T07:00:46;101162.25;;;6.95;97.42
53647;BME280;39550;52.230;5.194;2023-01-04T07:03:11;101158.84;;;6.94;97.64
53647;BME280;39550;52.230;5.194;2023-01-04T07:05:37;101165.75;;;6.97;97.94
53647;BME280;39550;52.230;5.194;2023-01-04T07:08:03;101150.34;;;6.95;98.21
53647;BME280;39550;52.230;5.194;2023-01-04T07:10:29;101153.78;;;6.97;97.39
53647;BME280;39550;52.230;5.194;2023-01-04T07:12:55;101148.59;;;6.94;97.64
53647;BME280;39550;52.230;5.194;2023-01-04T07:15:21;101159.75;;;6.96;98.12
53647;BME280;39550;52.230;5.194;2023-01-04T07:17:49;101155.50;;;6.97;97.74
53647;BME280;39550;52.230;5.194;2023-01-04T07:20:16;101146.06;;;6.96;97.79
53647;BME280;39550;52.230;5.194;2023-01-04T07:22:42;101150.41;;;6.98;97.22
53647;BME280;39550;52.230;5.194;2023-01-04T07:25:08;101146.09;;;6.97;98.34
53647;BME280;39550;52.230;5.194;2023-01-04T07:27:33;101137.56;;;6.97;97.52
53647;BME280;39550;52.230;5.194;2023-01-04T07:29:58;101150.44;;;7.00;97.41
53647;BME280;39550;52.230;5.194;2023-01-04T07:32:24;101149.63;;;7.01;97.55
53647;BME280;39550;52.230;5.194;2023-01-04T07:34:49;101136.81;;;7.01;97.51
53647;BME280;39550;52.230;5.194;2023-01-04T07:37:15;101138.56;;;7.02;97.41
53647;BME280;39550;52.230;5.194;2023-01-04T07:39:41;101142.03;;;7.04;97.60
53647;BME280;39550;52.230;5.194;2023-01-04T07:42:10;101123.09;;;6.99;97.83
53647;BME280;39550;52.230;5.194;2023-01-04T07:44:35;101124.09;;;7.04;98.44
53647;BME280;39550;52.230;5.194;2023-01-04T07:47:02;101130.91;;;7.04;97.65
53647;BME280;39550;52.230;5.194;2023-01-04T07:49:27;101126.56;;;7.01;98.01
53647;BME280;39550;52.230;5.194;2023-01-04T07:51:52;101128.38;;;7.05;97.76
53647;BME280;39550;52.230;5.194;2023-01-04T07:54:18;101126.66;;;7.04;98.51
53647;BME280;39550;52.230;5.194;2023-01-04T07:56:45;101118.97;;;7.04;97.36
53647;BME280;39550;52.230;5.194;2023-01-04T07:59:12;101121.53;;;7.04;97.54
53647;BME280;39550;52.230;5.194;2023-01-04T08:01:37;101117.31;;;7.06;98.33
53647;BME280;39550;52.230;5.194;2023-01-04T08:04:07;101118.13;;;7.05;98.16
53647;BME280;39550;52.230;5.194;2023-01-04T08:06:34;101126.72;;;7.07;97.64
53647;BME280;39550;52.230;5.194;2023-01-04T08:09:00;101116.47;;;7.07;97.91
53647;BME280;39550;52.230;5.194;2023-01-04T08:11:26;101122.44;;;7.06;98.16
53647;BME280;39550;52.230;5.194;2023-01-04T08:13:52;101116.47;;;7.07;97.70
53647;BME280;39550;52.230;5.194;2023-01-04T08:16:20;101118.22;;;7.08;97.79
53647;BME280;39550;52.230;5.194;2023-01-04T08:18:47;101123.34;;;7.08;97.29
53647;BME280;39550;52.230;5.194;2023-01-04T08:21:12;101121.69;;;7.10;98.01
53647;BME280;39550;52.230;5.194;2023-01-04T08:23:38;101120.84;;;7.11;98.21
53647;BME280;39550;52.230;5.194;2023-01-04T08:28:31;101127.72;;;7.12;98.61
53647;BME280;39550;52.230;5.194;2023-01-04T08:30:57;101117.44;;;7.11;98.00
53647;BME280;39550;52.230;5.194;2023-01-04T08:33:22;101133.66;;;7.11;98.22
53647;BME280;39550;52.230;5.194;2023-01-04T08:35:48;101129.38;;;7.10;97.95
53647;BME280;39550;52.230;5.194;2023-01-04T08:38:13;101142.25;;;7.12;97.98
53647;BME280;39550;52.230;5.194;2023-01-04T08:40:38;101138.91;;;7.14;97.73
53647;BME280;39550;52.230;5.194;2023-01-04T08:43:04;101138.91;;;7.14;97.44
53647;BME280;39550;52.230;5.194;2023-01-04T08:45:29;101142.28;;;7.13;98.04
53647;BME280;39550;52.230;5.194;2023-01-04T08:47:54;101140.56;;;7.14;97.43
53647;BME280;39550;52.230;5.194;2023-01-04T08:50:20;101149.16;;;7.14;98.04
53647;BME280;39550;52.230;5.194;2023-01-04T08:52:46;101143.13;;;7.14;98.10
53647;BME280;39550;52.230;5.194;2023-01-04T08:55:11;101158.53;;;7.15;97.59
53647;BME280;39550;52.230;5.194;2023-01-04T08:57:37;101147.47;;;7.16;98.42
53647;BME280;39550;52.230;5.194;2023-01-04T09:00:03;101153.41;;;7.15;97.76
53647;BME280;39550;52.230;5.194;2023-01-04T09:02:28;101156.03;;;7.17;97.65
53647;BME280;39550;52.230;5.194;2023-01-04T09:04:54;101156.94;;;7.19;97.98
53647;BME280;39550;52.230;5.194;2023-01-04T09:07:24;101158.66;;;7.19;96.95
53647;BME280;39550;52.230;5.194;2023-01-04T09:09:49;101175.72;;;7.18;97.52
53647;BME280;39550;52.230;5.194;2023-01-04T09:12:15;101166.41;;;7.22;97.86
53647;BME280;39550;52.230;5.194;2023-01-04T09:14:40;101174.06;;;7.20;97.67
53647;BME280;39550;52.230;5.194;2023-01-04T09:17:06;101171.53;;;7.22;97.51
53647;BME280;39550;52.230;5.194;2023-01-04T09:19:31;101173.28;;;7.23;97.53
53647;BME280;39550;52.230;5.194;2023-01-04T09:21:57;101172.41;;;7.22;97.31
53647;BME280;39550;52.230;5.194;2023-01-04T09:24:22;101176.66;;;7.22;97.08
53647;BME280;39550;52.230;5.194;2023-01-04T09:29:30;101164.81;;;7.27;97.39
53647;BME280;39550;52.230;5.194;2023-01-04T09:31:56;101175.06;;;7.27;98.29
53647;BME280;39550;52.230;5.194;2023-01-04T09:34:21;101171.69;;;7.28;97.43
53647;BME280;39550;52.230;5.194;2023-01-04T09:36:47;101176.00;;;7.29;97.82
53647;BME280;39550;52.230;5.194;2023-01-04T09:41:55;101187.97;;;7.28;98.35
53647;BME280;39550;52.230;5.194;2023-01-04T09:46:54;101180.31;;;7.30;97.80
53647;BME280;39550;52.230;5.194;2023-01-04T10:02:10;101178.81;;;7.38;98.54
53647;BME280;39550;52.230;5.194;2023-01-04T10:04:47;101118.06;;;7.02;98.53
53647;BME280;39550;52.230;5.194;2023-01-04T10:07:34;101111.19;;;7.01;97.69
53647;BME280;39550;52.230;5.194;2023-01-04T10:10:15;101116.31;;;7.01;98.01
53647;BME280;39550;52.230;5.194;2023-01-04T10:16:41;101176.31;;;7.41;97.87
53647;BME280;39550;52.230;5.194;2023-01-04T10:19:54;101179.78;;;7.43;99.04
53647;BME280;39550;52.230;5.194;2023-01-04T10:22:49;101168.72;;;7.44;98.87
53647;BME280;39550;52.230;5.194;2023-01-04T10:33:49;101173.91;;;7.47;98.51
53647;BME280;39550;52.230;5.194;2023-01-04T10:36:21;101191.03;;;7.48;98.38
53647;BME280;39550;52.230;5.194;2023-01-04T10:38:55;101173.91;;;7.47;98.43
53647;BME280;39550;52.230;5.194;2023-01-04T10:41:22;101172.28;;;7.49;98.15
53647;BME280;39550;52.230;5.194;2023-01-04T10:47:22;101178.28;;;7.52;99.05
53647;BME280;39550;52.230;5.194;2023-01-04T10:49:28;101158.56;;;7.82;100.00
53647;BME280;39550;52.230;5.194;2023-01-04T10:52:08;101145.41;;;7.69;98.72
53647;BME280;39550;52.230;5.194;2023-01-04T10:54:41;101161.59;;;7.67;99.22
53647;BME280;39550;52.230;5.194;2023-01-04T10:57:16;101163.25;;;7.65;98.64
53647;BME280;39550;52.230;5.194;2023-01-04T11:02:30;101151.19;;;7.61;99.53
53647;BME280;39550;52.230;5.194;2023-01-04T11:05:03;101142.66;;;7.62;99.36
53647;BME280;39550;52.230;5.194;2023-01-04T11:07:37;101133.28;;;7.63;99.32
53647;BME280;39550;52.230;5.194;2023-01-04T11:10:11;101133.34;;;7.66;99.65
53647;BME280;39550;52.230;5.194;2023-01-04T11:12:37;101121.34;;;7.65;98.49
53647;BME280;39550;52.230;5.194;2023-01-04T11:15:03;101124.97;;;7.73;97.95
53647;BME280;39550;52.230;5.194;2023-01-04T11:17:30;101104.53;;;7.76;98.06
53647;BME280;39550;52.230;5.194;2023-01-04T11:19:56;101102.25;;;7.89;97.34
53647;BME280;39550;52.230;5.194;2023-01-04T11:24:58;101106.69;;;7.96;96.45
53647;BME280;39550;52.230;5.194;2023-01-04T11:27:28;101123.06;;;8.01;96.93
53647;BME280;39550;52.230;5.194;2023-01-04T11:30:17;101116.19;;;8.00;96.29
53647;BME280;39550;52.230;5.194;2023-01-04T11:32:57;101107.84;;;8.09;95.66
53647;BME280;39550;52.230;5.194;2023-01-04T11:35:59;101107.97;;;8.15;96.05
53647;BME280;39550;52.230;5.194;2023-01-04T11:38:28;101108.81;;;8.15;95.76
53647;BME280;39550;52.230;5.194;2023-01-04T11:41:05;101101.19;;;8.17;95.60
53647;BME280;39550;52.230;5.194;2023-01-04T11:43:36;101095.22;;;8.19;94.86
53647;BME280;39550;52.230;5.194;2023-01-04T11:46:22;101095.97;;;8.15;95.45
53647;BME280;39550;52.230;5.194;2023-01-04T11:48:49;101111.44;;;8.17;96.11
53647;BME280;39550;52.230;5.194;2023-01-04T11:54:03;101118.22;;;8.15;95.68
53647;BME280;39550;52.230;5.194;2023-01-04T11:56:36;101124.22;;;8.15;96.04
53647;BME280;39550;52.230;5.194;2023-01-04T11:59:13;101113.94;;;8.15;96.16
53647;BME280;39550;52.230;5.194;2023-01-04T12:01:42;101095.16;;;8.16;96.10
53647;BME280;39550;52.230;5.194;2023-01-04T12:04:29;101109.72;;;8.17;96.35
53647;BME280;39550;52.230;5.194;2023-01-04T12:06:59;101110.56;;;8.16;95.92
53647;BME280;39550;52.230;5.194;2023-01-04T12:09:30;101112.28;;;8.16;96.42
53647;BME280;39550;52.230;5.194;2023-01-04T12:11:57;101119.09;;;8.15;95.76
53647;BME280;39550;52.230;5.194;2023-01-04T12:14:27;101108.81;;;8.15;95.65
53647;BME280;39550;52.230;5.194;2023-01-04T12:19:25;101108.91;;;8.18;96.04
53647;BME280;39550;52.230;5.194;2023-01-04T12:21:56;101121.78;;;8.20;95.94
53647;BME280;39550;52.230;5.194;2023-01-04T12:24:30;101115.81;;;8.21;95.43
53647;BME280;39550;52.230;5.194;2023-01-04T12:26:57;101099.59;;;8.24;95.57
53647;BME280;39550;52.230;5.194;2023-01-04T12:34:46;101095.38;;;8.26;95.42
53647;BME280;39550;52.230;5.194;2023-01-04T12:43:25;101062.63;;;8.15;95.25
53647;BME280;39550;52.230;5.194;2023-01-04T12:54:50;101097.88;;;8.64;97.67
53647;BME280;39550;52.230;5.194;2023-01-04T12:59:57;101088.00;;;9.33;97.46
53647;BME280;39550;52.230;5.194;2023-01-04T13:02:30;101099.16;;;9.32;95.92
53647;BME280;39550;52.230;5.194;2023-01-04T13:05:26;101086.91;;;9.18;95.94
53647;BME280;39550;52.230;5.194;2023-01-04T13:07:52;101097.19;;;9.18;96.13
53647;BME280;39550;52.230;5.194;2023-01-04T13:10:32;101091.88;;;9.09;96.59
53647;BME280;39550;52.230;5.194;2023-01-04T13:18:39;101099.63;;;9.11;97.48
53647;BME280;39550;52.230;5.194;2023-01-04T13:21:14;101099.50;;;9.03;97.55
53647;BME280;39550;52.230;5.194;2023-01-04T13:23:49;101109.81;;;9.06;97.64
53647;BME280;39550;52.230;5.194;2023-01-04T13:26:30;101079.66;;;8.96;97.59
53647;BME280;39550;52.230;5.194;2023-01-04T13:29:16;101107.34;;;9.12;98.06
53647;BME280;39550;52.230;5.194;2023-01-04T13:32:00;101083.13;;;8.98;97.99
53647;BME280;39550;52.230;5.194;2023-01-04T13:37:44;101079.53;;;8.90;97.53
53647;BME280;39550;52.230;5.194;2023-01-04T13:40:25;101077.66;;;8.79;97.88
53647;BME280;39550;52.230;5.194;2023-01-04T13:46:14;101064.28;;;8.99;98.19
53647;BME280;39550;52.230;5.194;2023-01-04T13:48:43;101059.81;;;8.90;97.36
53647;BME280;39550;52.230;5.194;2023-01-04T13:51:27;101086.88;;;9.15;97.43
53647;BME280;39550;52.230;5.194;2023-01-04T13:53:59;101098.81;;;9.13;97.49
53647;BME280;39550;52.230;5.194;2023-01-04T13:56:30;101046.25;;;8.96;97.40
53647;BME280;39550;52.230;5.194;2023-01-04T13:58:59;101012.41;;;8.71;97.58
53647;BME280;39550;52.230;5.194;2023-01-04T14:01:41;100962.09;;;8.38;97.58
53647;BME280;39550;52.230;5.194;2023-01-04T14:04:14;101084.28;;;9.14;97.37
53647;BME280;39550;52.230;5.194;2023-01-04T14:06:46;101013.22;;;8.68;97.21
53647;BME280;39550;52.230;5.194;2023-01-04T14:09:35;100992.81;;;8.78;97.22
53647;BME280;39550;52.230;5.194;2023-01-04T14:12:12;101082.81;;;9.30;96.61
53647;BME280;39550;52.230;5.194;2023-01-04T14:14:52;101075.09;;;9.30;96.35
53647;BME280;39550;52.230;5.194;2023-01-04T14:19:49;101099.06;;;9.29;96.24
53647;BME280;39550;52.230;5.194;2023-01-04T14:22:24;101069.69;;;9.14;96.82
53647;BME280;39550;52.230;5.194;2023-01-04T14:24:51;101093.88;;;9.26;96.80
53647;BME280;39550;52.230;5.194;2023-01-04T14:29:57;101033.41;;;8.96;96.67
53647;BME280;39550;52.230;5.194;2023-01-04T14:32:23;101009.13;;;8.80;96.35
53647;BME280;39550;52.230;5.194;2023-01-04T14:34:50;101085.22;;;9.20;96.53
53647;BME280;39550;52.230;5.194;2023-01-04T14:37:16;101067.91;;;9.10;96.94
53647;BME280;39550;52.230;5.194;2023-01-04T14:39:41;101074.06;;;9.18;96.64
53647;BME280;39550;52.230;5.194;2023-01-04T14:42:24;101085.16;;;9.16;96.64
53647;BME280;39550;52.230;5.194;2023-01-04T14:44:50;101001.31;;;8.74;96.39
53647;BME280;39550;52.230;5.194;2023-01-04T14:47:15;101034.19;;;8.92;96.72
53647;BME280;39550;52.230;5.194;2023-01-04T14:49:41;100997.78;;;8.67;96.56
53647;BME280;39550;52.230;5.194;2023-01-04T14:52:16;101066.22;;;9.12;96.09
53647;BME280;39550;52.230;5.194;2023-01-04T14:54:43;100937.31;;;8.42;96.29
53647;BME280;39550;52.230;5.194;2023-01-04T14:57:09;101081.78;;;9.20;96.27
53647;BME280;39550;52.230;5.194;2023-01-04T14:59:35;101082.66;;;9.20;96.20
53647;BME280;39550;52.230;5.194;2023-01-04T15:02:00;101087.00;;;9.25;96.14
53647;BME280;39550;52.230;5.194;2023-01-04T15:04:28;101048.91;;;9.02;95.32
53647;BME280;39550;52.230;5.194;2023-01-04T15:06:58;100982.13;;;8.55;94.78
53647;BME280;39550;52.230;5.194;2023-01-04T15:09:25;100970.75;;;8.43;94.98
53647;BME280;39550;52.230;5.194;2023-01-04T15:11:51;100973.53;;;8.54;95.31